createdAt,value
2023-01-29T00:00:45.972Z,101636.47
2023-01-29T00:03:14.421Z,101648.72
2023-01-29T00:05:48.998Z,101648.00
2023-01-29T00:08:17.038Z,101642.66
2023-01-29T00:10:47.840Z,101636.25
2023-01-29T00:13:15.742Z,101642.44
2023-01-29T00:15:54.684Z,101634.53
2023-01-29T00:18:22.744Z,101634.53
2023-01-29T00:20:50.967Z,101631.03
2023-01-29T00:23:21.206Z,101632.72
2023-01-29T00:25:49.541Z,101634.56
2023-01-29T00:28:17.520Z,101636.28
2023-01-29T00:30:49.560Z,101644.16
2023-01-29T00:33:17.534Z,101640.50
2023-01-29T00:35:46.461Z,101644.94
2023-01-29T00:38:14.405Z,101648.38
2023-01-29T00:40:59.976Z,101647.47
2023-01-29T00:43:45.565Z,101650.97
2023-01-29T00:46:15.176Z,101655.34
2023-01-29T00:48:43.113Z,101653.59
2023-01-29T00:51:11.185Z,101649.13
2023-01-29T00:53:42.151Z,101658.84
2023-01-29T00:56:10.265Z,101652.50
2023-01-29T00:58:38.291Z,101662.38
2023-01-29T01:01:09.683Z,101670.94
2023-01-29T01:03:42.237Z,101664.84
2023-01-29T01:06:12.065Z,101664.84
2023-01-29T01:08:57.344Z,101667.41
2023-01-29T01:11:25.788Z,101667.28
2023-01-29T01:14:02.181Z,101668.19
2023-01-29T01:16:30.508Z,101662.94
2023-01-29T01:19:00.221Z,101664.66
2023-01-29T01:21:28.425Z,101662.16
2023-01-29T01:23:56.543Z,101662.94
2023-01-29T01:26:24.932Z,101657.81
2023-01-29T01:28:53.444Z,101649.03
2023-01-29T01:31:24.395Z,101649.00
2023-01-29T01:33:55.996Z,101658.47
2023-01-29T01:36:25.579Z,101638.34
2023-01-29T01:38:56.133Z,101651.44
2023-01-29T01:41:24.485Z,101642.53
2023-01-29T01:43:55.559Z,101650.50
2023-01-29T01:46:30.897Z,101647.78
2023-01-29T01:49:03.868Z,101652.22
2023-01-29T01:51:35.433Z,101639.13
2023-01-29T01:54:07.610Z,101635.69
2023-01-29T01:56:40.692Z,101635.56
2023-01-29T01:59:13.020Z,101652.13
2023-01-29T02:01:44.316Z,101639.91
2023-01-29T02:04:33.414Z,101636.34
2023-01-29T02:07:22.476Z,101622.38
2023-01-29T02:09:55.018Z,101619.72
2023-01-29T02:12:24.258Z,101625.69
2023-01-29T02:14:52.660Z,101616.09
2023-01-29T02:17:21.911Z,101606.59
2023-01-29T02:20:02.044Z,101608.31
2023-01-29T02:23:07.125Z,101607.34
2023-01-29T02:25:53.998Z,101604.66
2023-01-29T02:28:36.343Z,101601.97
2023-01-29T02:31:13.630Z,101600.91
2023-01-29T02:33:51.467Z,101603.41
2023-01-29T02:36:31.235Z,101600.69
2023-01-29T02:39:06.704Z,101599.53
2023-01-29T02:41:41.529Z,101597.75
2023-01-29T02:44:23.121Z,101600.31
2023-01-29T02:46:58.726Z,101594.19
2023-01-29T02:49:35.417Z,101596.09
2023-01-29T02:52:09.436Z,101596.81
2023-01-29T02:54:46.034Z,101584.50
2023-01-29T02:57:20.829Z,101594.03
2023-01-29T02:59:56.452Z,101593.16
2023-01-29T03:02:33.334Z,101599.38
2023-01-29T03:05:06.107Z,101613.22
2023-01-29T03:07:46.339Z,101618.31
2023-01-29T03:10:40.462Z,101622.63
2023-01-29T03:13:15.752Z,101632.31
2023-01-29T03:16:08.721Z,101625.28
2023-01-29T03:18:48.710Z,101631.38
2023-01-29T03:21:39.946Z,101637.47
2023-01-29T03:24:30.116Z,101635.75
2023-01-29T03:27:20.496Z,101640.09
2023-01-29T03:30:09.354Z,101633.09
2023-01-29T03:33:06.387Z,101630.47
2023-01-29T03:35:39.701Z,101629.59
2023-01-29T03:38:10.967Z,101623.53
2023-01-29T03:40:49.242Z,101616.59
2023-01-29T03:43:32.234Z,101618.41
2023-01-29T03:46:08.460Z,101627.13
2023-01-29T03:48:41.492Z,101636.72
2023-01-29T03:51:19.791Z,101651.78
2023-01-29T03:53:55.352Z,101650.00
2023-01-29T03:56:42.056Z,101651.72
2023-01-29T03:59:23.492Z,101655.16
2023-01-29T04:02:15.481Z,101658.91
2023-01-29T04:04:47.844Z,101658.84
2023-01-29T04:07:23.869Z,101660.59
2023-01-29T04:10:04.571Z,101646.53
2023-01-29T04:12:41.202Z,101635.88
2023-01-29T04:15:15.675Z,101634.88
2023-01-29T04:17:52.802Z,101631.50
2023-01-29T04:20:41.452Z,101629.59
2023-01-29T04:23:22.003Z,101626.91
2023-01-29T04:29:43.734Z,101638.06
2023-01-29T04:32:19.847Z,101646.88
2023-01-29T04:35:01.352Z,101640.78
2023-01-29T04:37:38.153Z,101625.28
2023-01-29T04:40:16.920Z,101612.84
2023-01-29T04:42:51.781Z,101602.22
2023-01-29T04:45:28.956Z,101595.69
2023-01-29T04:48:06.412Z,101588.41
2023-01-29T04:50:40.595Z,101594.97
2023-01-29T04:53:16.653Z,101620.31
2023-01-29T04:55:50.784Z,101602.03
2023-01-29T04:58:27.856Z,101592.34
2023-01-29T05:01:01.432Z,101577.88
2023-01-29T05:03:31.260Z,101592.09
2023-01-29T05:06:02.535Z,101605.94
2023-01-29T05:08:33.130Z,101601.91
2023-01-29T05:11:01.438Z,101609.88
2023-01-29T05:13:34.395Z,101608.88
2023-01-29T05:16:09.726Z,101618.53
2023-01-29T05:18:37.887Z,101623.75
2023-01-29T05:21:09.340Z,101627.16
2023-01-29T05:23:37.482Z,101632.31
2023-01-29T05:26:06.705Z,101635.81
2023-01-29T05:28:35.737Z,101635.91
2023-01-29T05:31:05.194Z,101634.16
2023-01-29T05:33:35.544Z,101635.94
2023-01-29T05:36:04.159Z,101621.97
2023-01-29T05:38:32.567Z,101625.59
2023-01-29T05:41:03.093Z,101626.50
2023-01-29T05:43:31.639Z,101625.63
2023-01-29T05:46:02.690Z,101617.78
2023-01-29T05:48:32.542Z,101613.56
2023-01-29T05:51:01.697Z,101602.97
2023-01-29T05:53:32.761Z,101600.19
2023-01-29T05:56:02.939Z,101602.00
2023-01-29T05:58:31.645Z,101610.59
2023-01-29T06:00:59.731Z,101613.16
2023-01-29T06:03:27.695Z,101620.19
2023-01-29T06:05:56.980Z,101626.38
2023-01-29T06:08:25.207Z,101618.44
2023-01-29T06:10:53.206Z,101626.28
2023-01-29T06:13:23.429Z,101626.63
2023-01-29T06:15:51.730Z,101612.75
2023-01-29T06:18:19.800Z,101612.53
2023-01-29T06:20:49.930Z,101619.47
2023-01-29T06:23:19.337Z,101614.06
2023-01-29T06:25:47.436Z,101621.91
2023-01-29T06:28:15.686Z,101621.03
2023-01-29T06:30:43.655Z,101618.28
2023-01-29T06:33:13.655Z,101614.75
2023-01-29T06:35:41.595Z,101593.25
2023-01-29T06:38:09.544Z,101607.69
2023-01-29T06:40:40.752Z,101606.91
2023-01-29T06:43:08.757Z,101613.03
2023-01-29T06:45:36.881Z,101608.59
2023-01-29T06:48:04.995Z,101610.44
2023-01-29T06:50:32.934Z,101608.63
2023-01-29T06:53:00.961Z,101611.38
2023-01-29T06:55:29.078Z,101623.88
2023-01-29T06:57:58.375Z,101615.25
2023-01-29T07:00:26.406Z,101622.28
2023-01-29T07:02:54.401Z,101624.00
2023-01-29T07:05:22.442Z,101616.06
2023-01-29T07:07:50.475Z,101607.28
2023-01-29T07:10:19.175Z,101614.31
2023-01-29T07:12:47.638Z,101616.91
2023-01-29T07:15:20.315Z,101629.16
2023-01-29T07:17:58.072Z,101620.34
2023-01-29T07:20:26.942Z,101619.53
2023-01-29T07:22:54.951Z,101616.13
2023-01-29T07:25:23.188Z,101609.22
2023-01-29T07:27:51.324Z,101622.44
2023-01-29T07:30:21.315Z,101620.72
2023-01-29T07:32:51.470Z,101633.72
2023-01-29T07:35:19.640Z,101638.19
2023-01-29T07:37:50.771Z,101637.38
2023-01-29T07:40:19.249Z,101633.06
2023-01-29T07:42:47.243Z,101640.03
2023-01-29T07:45:15.208Z,101645.38
2023-01-29T07:47:44.548Z,101645.50
2023-01-29T07:50:13.833Z,101648.25
2023-01-29T07:52:41.910Z,101647.34
2023-01-29T07:55:10.861Z,101653.66
2023-01-29T07:57:38.839Z,101650.38
2023-01-29T08:00:07.894Z,101655.53
2023-01-29T08:02:40.528Z,101643.34
2023-01-29T08:05:10.453Z,101655.63
2023-01-29T08:07:40.732Z,101653.00
2023-01-29T08:10:11.023Z,101662.06
2023-01-29T08:12:39.388Z,101649.91
2023-01-29T08:15:11.051Z,101660.69
2023-01-29T08:20:29.036Z,101655.75
2023-01-29T08:23:01.836Z,101647.56
2023-01-29T08:25:33.607Z,101651.56
2023-01-29T08:28:02.445Z,101647.53
2023-01-29T08:30:33.199Z,101649.16
2023-01-29T08:33:01.397Z,101650.72
2023-01-29T08:35:31.466Z,101658.03
2023-01-29T08:38:01.698Z,101655.31
2023-01-29T08:40:31.914Z,101667.84
2023-01-29T08:43:02.168Z,101677.63
2023-01-29T08:45:31.556Z,101679.34
2023-01-29T08:48:01.775Z,101676.47
2023-01-29T08:50:31.983Z,101656.31
2023-01-29T08:53:00.688Z,101634.28
2023-01-29T08:55:29.296Z,101620.84
2023-01-29T08:57:58.376Z,101614.22
2023-01-29T09:00:26.530Z,101597.31
2023-01-29T09:02:54.522Z,101610.19
2023-01-29T09:05:24.929Z,101608.19
2023-01-29T09:07:54.358Z,101612.34
2023-01-29T09:10:22.291Z,101622.09
2023-01-29T09:12:50.685Z,101617.28
2023-01-29T09:15:21.041Z,101620.41
2023-01-29T09:17:50.197Z,101629.66
2023-01-29T09:20:21.435Z,101629.22
2023-01-29T09:22:50.685Z,101633.53
2023-01-29T09:25:20.487Z,101647.13
2023-01-29T09:30:24.619Z,101638.91
2023-01-29T09:32:54.230Z,101647.00
2023-01-29T09:35:23.294Z,101654.06
2023-01-29T09:37:51.867Z,101665.94
2023-01-29T09:40:27.610Z,101667.66
2023-01-29T09:43:03.007Z,101672.81
2023-01-29T09:45:33.611Z,101683.16
2023-01-29T09:48:06.601Z,101672.59
2023-01-29T09:50:40.104Z,101671.97
2023-01-29T09:53:18.285Z,101681.41
2023-01-29T09:55:51.421Z,101691.66
2023-01-29T09:58:28.621Z,101690.28
2023-01-29T10:01:09.240Z,101677.09
2023-01-29T10:03:55.375Z,101686.41
2023-01-29T10:06:37.453Z,101685.97
2023-01-29T10:09:27.730Z,101662.03
2023-01-29T10:12:09.902Z,101674.88
2023-01-29T10:14:49.477Z,101669.63
2023-01-29T10:17:36.691Z,101668.72
2023-01-29T10:20:34.708Z,101679.41
2023-01-29T10:23:15.400Z,101680.06
2023-01-29T10:25:45.909Z,101665.38
2023-01-29T10:28:19.466Z,101665.00
2023-01-29T10:30:50.991Z,101667.09
2023-01-29T10:33:29.565Z,101654.72
2023-01-29T10:36:03.981Z,101657.38
2023-01-29T10:38:45.346Z,101649.97
2023-01-29T10:41:22.728Z,101637.88
2023-01-29T10:44:06.038Z,101643.69
2023-01-29T10:46:50.889Z,101632.38
2023-01-29T10:49:36.417Z,101615.41
2023-01-29T10:52:17.294Z,101616.34
2023-01-29T10:55:02.331Z,101618.78
2023-01-29T10:57:49.981Z,101609.34
2023-01-29T11:00:23.258Z,101612.34
2023-01-29T11:02:52.541Z,101608.03
2023-01-29T11:05:27.598Z,101597.72
2023-01-29T11:08:05.871Z,101598.28
2023-01-29T11:10:38.701Z,101588.59
2023-01-29T11:13:07.239Z,101585.97
2023-01-29T11:15:35.910Z,101583.19
2023-01-29T11:18:06.942Z,101579.50
2023-01-29T11:20:36.979Z,101566.34
2023-01-29T11:23:06.745Z,101574.44
2023-01-29T11:25:35.805Z,101576.16
2023-01-29T11:28:05.404Z,101568.88
2023-01-29T11:30:36.699Z,101563.34
2023-01-29T11:33:21.374Z,101550.31
2023-01-29T11:35:52.580Z,101543.94
2023-01-29T11:38:24.450Z,101526.78
2023-01-29T11:40:52.789Z,101534.59
2023-01-29T11:43:29.782Z,101529.19
2023-01-29T11:46:03.588Z,101516.16
2023-01-29T11:48:40.728Z,101509.16
2023-01-29T11:51:12.294Z,101514.50
2023-01-29T11:53:43.390Z,101515.28
2023-01-29T11:56:22.187Z,101518.72
2023-01-29T11:58:52.792Z,101511.66
2023-01-29T12:01:34.048Z,101517.50
2023-01-29T12:04:13.936Z,101500.50
2023-01-29T12:06:48.366Z,101493.13
2023-01-29T12:09:19.506Z,101495.84
2023-01-29T12:11:49.784Z,101497.31
2023-01-29T12:14:29.507Z,101481.53
2023-01-29T12:17:00.869Z,101479.84
2023-01-29T12:19:34.341Z,101478.13
2023-01-29T12:22:09.855Z,101482.59
2023-01-29T12:24:44.963Z,101479.84
2023-01-29T12:27:20.506Z,101474.69
2023-01-29T12:29:53.664Z,101476.44
2023-01-29T12:32:33.366Z,101467.41
2023-01-29T12:35:07.283Z,101468.47
2023-01-29T12:37:46.430Z,101463.13
2023-01-29T12:40:16.792Z,101454.25
2023-01-29T12:42:49.132Z,101447.06
2023-01-29T12:45:19.921Z,101442.00
2023-01-29T12:47:51.891Z,101450.25
2023-01-29T12:50:25.735Z,101442.28
2023-01-29T12:52:59.510Z,101438.03
2023-01-29T12:55:34.531Z,101436.22
2023-01-29T12:58:11.432Z,101440.59
2023-01-29T13:00:45.016Z,101439.53
2023-01-29T13:03:22.253Z,101436.44
2023-01-29T13:05:54.126Z,101422.25
2023-01-29T13:08:32.002Z,101420.97
2023-01-29T13:11:04.114Z,101415.81
2023-01-29T13:13:37.171Z,101407.53
2023-01-29T13:16:11.110Z,101408.66
2023-01-29T13:18:45.130Z,101398.63
2023-01-29T13:21:18.455Z,101397.84
2023-01-29T13:23:51.076Z,101388.59
2023-01-29T13:26:20.234Z,101397.44
2023-01-29T13:28:50.245Z,101395.66
2023-01-29T13:31:30.041Z,101404.69
2023-01-29T13:34:08.844Z,101400.19
2023-01-29T13:36:42.588Z,101394.03
2023-01-29T13:39:21.348Z,101406.53
2023-01-29T13:41:52.272Z,101395.34
2023-01-29T13:44:24.108Z,101395.09
2023-01-29T13:46:57.076Z,101384.59
2023-01-29T13:49:38.291Z,101374.00
2023-01-29T13:52:22.474Z,101368.38
2023-01-29T13:54:57.959Z,101368.44
2023-01-29T13:57:47.468Z,101361.38
2023-01-29T14:00:58.662Z,101365.84
2023-01-29T14:04:04.885Z,101362.44
2023-01-29T14:06:41.380Z,101360.34
2023-01-29T14:10:00.192Z,101351.78
2023-01-29T14:12:51.814Z,101349.53
2023-01-29T14:15:31.719Z,101353.75
2023-01-29T14:18:21.588Z,101352.53
2023-01-29T14:21:08.675Z,101353.34
2023-01-29T14:23:42.722Z,101346.31
2023-01-29T14:26:24.401Z,101347.22
2023-01-29T14:31:33.263Z,101338.25
2023-01-29T14:34:03.092Z,101340.56
2023-01-29T14:36:40.905Z,101330.75
2023-01-29T14:39:22.059Z,101339.44
2023-01-29T14:41:52.525Z,101326.78
2023-01-29T14:45:04.137Z,101341.81
2023-01-29T14:48:07.014Z,101337.50
2023-01-29T14:50:55.611Z,101337.63
2023-01-29T14:53:35.279Z,101344.63
2023-01-29T14:56:11.588Z,101335.06
2023-01-29T14:58:45.073Z,101337.53
2023-01-29T15:01:26.472Z,101339.13
2023-01-29T15:04:03.796Z,101325.66
2023-01-29T15:06:40.522Z,101333.44
2023-01-29T15:09:15.901Z,101327.19
2023-01-29T15:11:57.115Z,101325.38
2023-01-29T15:14:34.079Z,101329.75
2023-01-29T15:17:17.236Z,101326.06
2023-01-29T15:19:49.141Z,101321.50
2023-01-29T15:22:18.562Z,101325.94
2023-01-29T15:24:48.889Z,101318.88
2023-01-29T15:27:20.398Z,101322.25
2023-01-29T15:29:54.536Z,101322.16
2023-01-29T15:32:30.856Z,101326.31
2023-01-29T15:35:01.581Z,101328.94
2023-01-29T15:37:32.536Z,101319.09
2023-01-29T15:40:02.346Z,101321.69
2023-01-29T15:42:42.427Z,101318.09
2023-01-29T15:45:22.946Z,101316.28
2023-01-29T15:47:51.795Z,101301.31
2023-01-29T15:50:24.725Z,101305.63
2023-01-29T15:52:54.806Z,101301.91
2023-01-29T15:55:25.495Z,101301.78
2023-01-29T15:57:53.782Z,101293.81
2023-01-29T16:00:25.130Z,101281.31
2023-01-29T16:02:55.617Z,101291.00
2023-01-29T16:05:30.517Z,101282.16
2023-01-29T16:08:00.352Z,101279.31
2023-01-29T16:10:31.410Z,101282.88
2023-01-29T16:13:00.011Z,101276.47
2023-01-29T16:15:35.960Z,101272.00
2023-01-29T16:18:17.879Z,101272.72
2023-01-29T16:20:53.065Z,101277.72
2023-01-29T16:23:25.331Z,101268.97
2023-01-29T16:25:53.537Z,101266.16
2023-01-29T16:28:21.944Z,101269.44
2023-01-29T16:30:57.900Z,101246.44
2023-01-29T16:33:34.273Z,101266.56
2023-01-29T16:36:05.927Z,101262.03
2023-01-29T16:38:36.380Z,101260.22
2023-01-29T16:41:17.002Z,101262.81
2023-01-29T16:43:53.592Z,101266.97
2023-01-29T16:46:33.418Z,101259.72
2023-01-29T16:49:01.840Z,101256.97
2023-01-29T16:51:39.708Z,101258.69
2023-01-29T16:54:16.126Z,101266.94
2023-01-29T16:56:46.615Z,101264.69
2023-01-29T16:59:20.117Z,101268.94
2023-01-29T17:01:50.506Z,101267.88
2023-01-29T17:04:20.293Z,101271.06
2023-01-29T17:06:54.684Z,101255.72
2023-01-29T17:09:26.418Z,101276.75
2023-01-29T17:11:57.493Z,101278.81
2023-01-29T17:14:26.921Z,101285.28
2023-01-29T17:16:56.977Z,101292.06
2023-01-29T17:19:27.199Z,101295.84
2023-01-29T17:21:57.163Z,101301.69
2023-01-29T17:24:25.534Z,101308.81
2023-01-29T17:26:55.072Z,101310.25
2023-01-29T17:29:28.969Z,101308.66
2023-01-29T17:32:00.149Z,101309.59
2023-01-29T17:34:28.577Z,101308.81
2023-01-29T17:37:00.968Z,101317.38
2023-01-29T17:39:29.210Z,101312.03
2023-01-29T17:41:59.031Z,101304.75
2023-01-29T17:44:27.365Z,101316.53
2023-01-29T17:47:00.890Z,101322.81
2023-01-29T17:49:32.502Z,101318.53
2023-01-29T17:52:04.737Z,101328.50
2023-01-29T17:54:33.143Z,101325.47
2023-01-29T17:57:01.433Z,101278.25
2023-01-29T17:59:33.622Z,101324.19
2023-01-29T18:02:02.079Z,101319.94
2023-01-29T18:04:30.050Z,101318.72
2023-01-29T18:07:00.478Z,101322.97
2023-01-29T18:09:29.949Z,101311.78
2023-01-29T18:11:58.301Z,101306.50
2023-01-29T18:14:28.907Z,101306.63
2023-01-29T18:16:57.412Z,101308.34
2023-01-29T18:19:28.418Z,101301.56
2023-01-29T18:21:56.703Z,101279.22
2023-01-29T18:24:26.537Z,101312.94
2023-01-29T18:26:56.230Z,101311.75
2023-01-29T18:29:30.358Z,101313.69
2023-01-29T18:31:59.485Z,101310.41
2023-01-29T18:34:28.167Z,101312.81
2023-01-29T18:36:56.774Z,101304.78
2023-01-29T18:39:24.904Z,101304.75
2023-01-29T18:41:53.230Z,101294.19
2023-01-29T18:44:22.743Z,101297.50
2023-01-29T18:46:51.585Z,101296.78
2023-01-29T18:49:23.646Z,101293.94
2023-01-29T18:51:52.008Z,101294.66
2023-01-29T18:54:21.523Z,101300.13
2023-01-29T18:57:08.608Z,101297.63
2023-01-29T18:59:40.886Z,101300.22
2023-01-29T19:02:09.249Z,101301.78
2023-01-29T19:04:37.645Z,101291.50
2023-01-29T19:07:09.604Z,101301.00
2023-01-29T19:09:40.580Z,101291.25
2023-01-29T19:12:09.826Z,101298.00
2023-01-29T19:14:37.823Z,101297.22
2023-01-29T19:17:07.264Z,101296.44
2023-01-29T19:19:35.701Z,101298.28
2023-01-29T19:22:03.700Z,101297.22
2023-01-29T19:24:36.522Z,101287.97
2023-01-29T19:27:05.816Z,101279.06
2023-01-29T19:32:23.929Z,101284.94
2023-01-29T19:34:52.251Z,101294.72
2023-01-29T19:37:20.202Z,101289.50
2023-01-29T19:39:48.441Z,101288.84
2023-01-29T19:42:17.175Z,101285.22
2023-01-29T19:44:45.710Z,101277.25
2023-01-29T19:47:13.995Z,101264.97
2023-01-29T19:49:43.555Z,101280.88
2023-01-29T19:52:15.050Z,101273.03
2023-01-29T19:54:46.126Z,101274.06
2023-01-29T19:57:14.654Z,101274.59
2023-01-29T19:59:45.626Z,101270.94
2023-01-29T20:02:14.152Z,101267.19
2023-01-29T20:04:43.557Z,101256.97
2023-01-29T20:07:11.917Z,101264.75
2023-01-29T20:09:41.326Z,101261.22
2023-01-29T20:12:09.773Z,101259.53
2023-01-29T20:14:39.123Z,101252.53
2023-01-29T20:17:09.643Z,101259.38
2023-01-29T20:19:37.725Z,101263.41
2023-01-29T20:22:07.031Z,101267.63
2023-01-29T20:24:39.342Z,101275.34
2023-01-29T20:27:07.416Z,101271.78
2023-01-29T20:29:35.640Z,101271.41
2023-01-29T20:32:04.291Z,101275.31
2023-01-29T20:34:32.653Z,101284.63
2023-01-29T20:37:00.631Z,101287.94
2023-01-29T20:39:30.147Z,101283.84
2023-01-29T20:42:01.141Z,101284.50
2023-01-29T20:44:29.587Z,101282.53
2023-01-29T20:47:01.707Z,101278.63
2023-01-29T20:49:30.183Z,101289.22
2023-01-29T20:51:58.214Z,101276.41
2023-01-29T20:54:26.541Z,101278.34
2023-01-29T20:56:56.317Z,101270.78
2023-01-29T20:59:24.693Z,101263.72
2023-01-29T21:01:52.783Z,101265.63
2023-01-29T21:04:21.190Z,101269.84
2023-01-29T21:06:52.376Z,101258.91
2023-01-29T21:09:22.928Z,101257.25
2023-01-29T21:11:51.407Z,101258.03
2023-01-29T21:14:21.197Z,101245.56
2023-01-29T21:16:49.422Z,101240.44
2023-01-29T21:19:17.503Z,101238.50
2023-01-29T21:21:45.521Z,101229.88
2023-01-29T21:24:18.668Z,101226.09
2023-01-29T21:26:46.779Z,101219.34
2023-01-29T21:29:15.386Z,101206.69
2023-01-29T21:31:44.762Z,101202.13
2023-01-29T21:34:15.396Z,101202.72
2023-01-29T21:36:43.399Z,101200.66
2023-01-29T21:39:17.637Z,101212.38
2023-01-29T21:42:07.982Z,101196.97
2023-01-29T21:44:38.552Z,101202.59
2023-01-29T21:47:13.249Z,101197.69
2023-01-29T21:49:42.452Z,101189.13
2023-01-29T21:52:12.571Z,101177.97
2023-01-29T21:54:40.974Z,101171.16
2023-01-29T21:57:15.123Z,101161.63
2023-01-29T21:59:47.379Z,101156.66
2023-01-29T22:02:27.772Z,101155.88
2023-01-29T22:05:05.315Z,101164.03
2023-01-29T22:07:44.516Z,101158.03
2023-01-29T22:10:15.598Z,101158.06
2023-01-29T22:12:44.765Z,101149.53
2023-01-29T22:15:14.300Z,101140.09
2023-01-29T22:17:43.854Z,101134.22
2023-01-29T22:20:13.974Z,101128.97
2023-01-29T22:22:44.602Z,101122.94
2023-01-29T22:25:12.881Z,101135.25
2023-01-29T22:27:43.453Z,101136.16
2023-01-29T22:30:13.612Z,101128.34
2023-01-29T22:32:43.232Z,101121.31
2023-01-29T22:35:11.454Z,101121.31
2023-01-29T22:37:39.563Z,101120.50
2023-01-29T22:40:09.169Z,101112.75
2023-01-29T22:42:37.468Z,101120.72
2023-01-29T22:45:06.445Z,101115.53
2023-01-29T22:47:34.411Z,101118.25
2023-01-29T22:50:04.248Z,101115.69
2023-01-29T22:52:38.442Z,101108.78
2023-01-29T22:55:12.053Z,101102.94
2023-01-29T22:57:40.989Z,101101.16
2023-01-29T23:00:12.054Z,101089.00
2023-01-29T23:02:42.507Z,101089.84
2023-01-29T23:05:15.290Z,101103.13
2023-01-29T23:07:43.339Z,101090.00
2023-01-29T23:10:14.464Z,101075.16
2023-01-29T23:12:43.331Z,101086.66
2023-01-29T23:15:11.647Z,101076.97
2023-01-29T23:17:39.812Z,101084.91
2023-01-29T23:20:09.971Z,101091.88
2023-01-29T23:22:39.368Z,101089.28
2023-01-29T23:25:08.600Z,101067.41
2023-01-29T23:27:35.917Z,101066.31
2023-01-29T23:30:04.492Z,101061.84
2023-01-29T23:32:32.727Z,101065.34
2023-01-29T23:35:03.128Z,101049.47
2023-01-29T23:37:31.293Z,101035.34
2023-01-29T23:40:01.010Z,101037.06
2023-01-29T23:42:28.953Z,101046.81
2023-01-29T23:44:57.032Z,101054.78
2023-01-29T23:47:25.036Z,101058.38
2023-01-29T23:49:53.301Z,101055.91
2023-01-29T23:52:21.283Z,101065.44
2023-01-29T23:54:49.503Z,101064.53
2023-01-29T23:57:18.872Z,101068.03
2023-01-29T23:59:47.298Z,101073.31
